sensor_id;sensor_type;location;lat;lon;timestamp;P1;durP1;ratioP1;P2;durP2;ratioP2
21705;SDS011;11014;53.076;18.208;2022-12-24T00:03:29;420.73;;;71.35;;
21705;SDS011;11014;53.076;18.208;2022-12-24T00:06:03;445.10;;;78.35;;
21705;SDS011;11014;53.076;18.208;2022-12-24T00:08:34;329.83;;;60.80;;
21705;SDS011;11014;53.076;18.208;2022-12-24T00:11:02;231.85;;;50.50;;
21705;SDS011;11014;53.076;18.208;2022-12-24T00:13:31;312.27;;;53.05;;
21705;SDS011;11014;53.076;18.208;2022-12-24T00:16:00;243.43;;;53.80;;
21705;SDS011;11014;53.076;18.208;2022-12-24T00:18:29;227.63;;;53.35;;
21705;SDS011;11014;53.076;18.208;2022-12-24T00:20:57;251.30;;;57.47;;
21705;SDS011;11014;53.076;18.208;2022-12-24T00:23:26;208.10;;;54.50;;
21705;SDS011;11014;53.076;18.208;2022-12-24T00:25:54;232.02;;;53.92;;
21705;SDS011;11014;53.076;18.208;2022-12-24T00:28:23;270.58;;;48.35;;
21705;SDS011;11014;53.076;18.208;2022-12-24T00:30:51;203.35;;;44.38;;
21705;SDS011;11014;53.076;18.208;2022-12-24T00:33:20;192.13;;;44.40;;
21705;SDS011;11014;53.076;18.208;2022-12-24T00:35:52;173.38;;;40.97;;
21705;SDS011;11014;53.076;18.208;2022-12-24T00:38:24;134.68;;;40.08;;
21705;SDS011;11014;53.076;18.208;2022-12-24T00:41:05;124.63;;;37.63;;
21705;SDS011;11014;53.076;18.208;2022-12-24T00:43:57;106.88;;;34.30;;
21705;SDS011;11014;53.076;18.208;2022-12-24T00:46:34;85.25;;;33.38;;
21705;SDS011;11014;53.076;18.208;2022-12-24T00:49:07;88.63;;;33.58;;
21705;SDS011;11014;53.076;18.208;2022-12-24T00:51:41;85.22;;;32.85;;
21705;SDS011;11014;53.076;18.208;2022-12-24T00:54:19;80.10;;;31.58;;
21705;SDS011;11014;53.076;18.208;2022-12-24T00:56:50;94.35;;;31.95;;
21705;SDS011;11014;53.076;18.208;2022-12-24T00:59:19;143.85;;;34.38;;
21705;SDS011;11014;53.076;18.208;2022-12-24T01:01:47;76.25;;;30.73;;
21705;SDS011;11014;53.076;18.208;2022-12-24T01:04:16;97.22;;;36.13;;
21705;SDS011;11014;53.076;18.208;2022-12-24T01:07:03;142.98;;;44.05;;
21705;SDS011;11014;53.076;18.208;2022-12-24T01:09:31;160.95;;;45.40;;
21705;SDS011;11014;53.076;18.208;2022-12-24T01:12:00;151.32;;;40.92;;
21705;SDS011;11014;53.076;18.208;2022-12-24T01:14:28;196.55;;;41.53;;
21705;SDS011;11014;53.076;18.208;2022-12-24T01:16:57;185.13;;;41.15;;
21705;SDS011;11014;53.076;18.208;2022-12-24T01:19:25;124.00;;;39.92;;
21705;SDS011;11014;53.076;18.208;2022-12-24T01:21:53;139.23;;;41.83;;
21705;SDS011;11014;53.076;18.208;2022-12-24T01:24:22;129.20;;;42.58;;
21705;SDS011;11014;53.076;18.208;2022-12-24T01:26:51;141.50;;;43.78;;
21705;SDS011;11014;53.076;18.208;2022-12-24T01:29:19;137.20;;;41.17;;
21705;SDS011;11014;53.076;18.208;2022-12-24T01:31:47;132.48;;;35.92;;
21705;SDS011;11014;53.076;18.208;2022-12-24T01:34:16;139.32;;;33.88;;
21705;SDS011;11014;53.076;18.208;2022-12-24T01:36:44;102.68;;;30.83;;
21705;SDS011;11014;53.076;18.208;2022-12-24T01:39:13;81.15;;;29.17;;
21705;SDS011;11014;53.076;18.208;2022-12-24T01:41:42;68.88;;;27.98;;
21705;SDS011;11014;53.076;18.208;2022-12-24T01:44:32;78.97;;;29.20;;
21705;SDS011;11014;53.076;18.208;2022-12-24T01:47:17;81.78;;;30.60;;
21705;SDS011;11014;53.076;18.208;2022-12-24T01:49:55;83.20;;;30.63;;
21705;SDS011;11014;53.076;18.208;2022-12-24T01:52:27;73.25;;;31.02;;
21705;SDS011;11014;53.076;18.208;2022-12-24T01:55:04;69.68;;;31.52;;
21705;SDS011;11014;53.076;18.208;2022-12-24T01:57:37;58.47;;;29.30;;
21705;SDS011;11014;53.076;18.208;2022-12-24T02:00:11;64.70;;;28.40;;
21705;SDS011;11014;53.076;18.208;2022-12-24T02:02:43;66.38;;;29.00;;
21705;SDS011;11014;53.076;18.208;2022-12-24T02:05:59;60.92;;;29.05;;
21705;SDS011;11014;53.076;18.208;2022-12-24T02:08:22;68.13;;;30.55;;
21705;SDS011;11014;53.076;18.208;2022-12-24T02:13:44;64.18;;;29.88;;
21705;SDS011;11014;53.076;18.208;2022-12-24T02:16:30;62.13;;;29.77;;
21705;SDS011;11014;53.076;18.208;2022-12-24T02:22:40;67.78;;;30.33;;
21705;SDS011;11014;53.076;18.208;2022-12-24T02:25:21;68.47;;;30.35;;
21705;SDS011;11014;53.076;18.208;2022-12-24T02:31:10;62.80;;;28.73;;
21705;SDS011;11014;53.076;18.208;2022-12-24T02:34:03;57.95;;;27.92;;
21705;SDS011;11014;53.076;18.208;2022-12-24T02:36:42;55.42;;;27.05;;
21705;SDS011;11014;53.076;18.208;2022-12-24T02:39:54;52.85;;;26.63;;
21705;SDS011;11014;53.076;18.208;2022-12-24T02:42:26;54.35;;;25.25;;
21705;SDS011;11014;53.076;18.208;2022-12-24T02:45:04;54.30;;;27.35;;
21705;SDS011;11014;53.076;18.208;2022-12-24T02:47:37;55.85;;;27.60;;
21705;SDS011;11014;53.076;18.208;2022-12-24T02:50:09;54.13;;;27.87;;
21705;SDS011;11014;53.076;18.208;2022-12-24T02:52:40;57.95;;;27.67;;
21705;SDS011;11014;53.076;18.208;2022-12-24T03:01:27;58.60;;;27.47;;
21705;SDS011;11014;53.076;18.208;2022-12-24T03:07:12;53.42;;;28.75;;
21705;SDS011;11014;53.076;18.208;2022-12-24T03:12:33;47.13;;;26.63;;
21705;SDS011;11014;53.076;18.208;2022-12-24T03:15:07;57.92;;;27.58;;
21705;SDS011;11014;53.076;18.208;2022-12-24T03:17:37;44.05;;;25.02;;
21705;SDS011;11014;53.076;18.208;2022-12-24T03:20:09;49.05;;;24.30;;
21705;SDS011;11014;53.076;18.208;2022-12-24T03:22:40;44.63;;;23.27;;
21705;SDS011;11014;53.076;18.208;2022-12-24T03:25:08;43.78;;;24.42;;
21705;SDS011;11014;53.076;18.208;2022-12-24T03:27:39;41.58;;;26.50;;
21705;SDS011;11014;53.076;18.208;2022-12-24T03:30:12;45.95;;;26.50;;
21705;SDS011;11014;53.076;18.208;2022-12-24T03:32:43;37.33;;;21.65;;
21705;SDS011;11014;53.076;18.208;2022-12-24T03:35:11;35.58;;;21.50;;
21705;SDS011;11014;53.076;18.208;2022-12-24T03:37:40;34.33;;;19.70;;
21705;SDS011;11014;53.076;18.208;2022-12-24T03:40:09;33.72;;;18.77;;
21705;SDS011;11014;53.076;18.208;2022-12-24T03:42:37;36.22;;;20.38;;
21705;SDS011;11014;53.076;18.208;2022-12-24T03:45:06;37.38;;;22.00;;
21705;SDS011;11014;53.076;18.208;2022-12-24T03:47:35;38.47;;;21.67;;
21705;SDS011;11014;53.076;18.208;2022-12-24T03:50:05;35.85;;;18.88;;
21705;SDS011;11014;53.076;18.208;2022-12-24T03:52:34;31.45;;;19.52;;
21705;SDS011;11014;53.076;18.208;2022-12-24T03:57:56;32.60;;;18.40;;
21705;SDS011;11014;53.076;18.208;2022-12-24T04:00:24;31.15;;;18.27;;
21705;SDS011;11014;53.076;18.208;2022-12-24T04:02:53;32.17;;;17.73;;
21705;SDS011;11014;53.076;18.208;2022-12-24T04:05:22;28.25;;;14.32;;
21705;SDS011;11014;53.076;18.208;2022-12-24T04:07:50;28.75;;;15.90;;
21705;SDS011;11014;53.076;18.208;2022-12-24T04:10:18;30.75;;;16.52;;
21705;SDS011;11014;53.076;18.208;2022-12-24T04:12:47;25.70;;;15.65;;
21705;SDS011;11014;53.076;18.208;2022-12-24T04:15:16;30.00;;;16.27;;
21705;SDS011;11014;53.076;18.208;2022-12-24T04:17:44;39.15;;;19.67;;
21705;SDS011;11014;53.076;18.208;2022-12-24T04:20:12;36.72;;;19.05;;
21705;SDS011;11014;53.076;18.208;2022-12-24T04:22:41;38.97;;;19.05;;
21705;SDS011;11014;53.076;18.208;2022-12-24T04:25:10;30.88;;;17.77;;
21705;SDS011;11014;53.076;18.208;2022-12-24T04:27:38;36.78;;;18.10;;
21705;SDS011;11014;53.076;18.208;2022-12-24T04:30:07;35.90;;;18.00;;
21705;SDS011;11014;53.076;18.208;2022-12-24T04:32:36;37.78;;;19.23;;
21705;SDS011;11014;53.076;18.208;2022-12-24T04:35:04;39.20;;;19.73;;
21705;SDS011;11014;53.076;18.208;2022-12-24T04:37:33;35.70;;;19.02;;
21705;SDS011;11014;53.076;18.208;2022-12-24T04:40:02;35.17;;;19.70;;
21705;SDS011;11014;53.076;18.208;2022-12-24T04:42:31;34.28;;;19.10;;
21705;SDS011;11014;53.076;18.208;2022-12-24T04:44:59;31.05;;;17.00;;
21705;SDS011;11014;53.076;18.208;2022-12-24T04:47:27;27.70;;;13.95;;
21705;SDS011;11014;53.076;18.208;2022-12-24T04:49:56;24.75;;;14.02;;
21705;SDS011;11014;53.076;18.208;2022-12-24T04:52:24;30.10;;;14.88;;
21705;SDS011;11014;53.076;18.208;2022-12-24T04:54:53;32.55;;;17.85;;
21705;SDS011;11014;53.076;18.208;2022-12-24T04:57:24;36.17;;;18.73;;
21705;SDS011;11014;53.076;18.208;2022-12-24T04:59:52;34.67;;;18.08;;
21705;SDS011;11014;53.076;18.208;2022-12-24T05:02:22;35.97;;;19.02;;
21705;SDS011;11014;53.076;18.208;2022-12-24T05:04:51;38.60;;;21.48;;
21705;SDS011;11014;53.076;18.208;2022-12-24T05:07:32;41.38;;;21.13;;
21705;SDS011;11014;53.076;18.208;2022-12-24T05:10:01;33.67;;;19.92;;
21705;SDS011;11014;53.076;18.208;2022-12-24T05:12:29;34.08;;;19.48;;
21705;SDS011;11014;53.076;18.208;2022-12-24T05:14:58;34.58;;;18.50;;
21705;SDS011;11014;53.076;18.208;2022-12-24T05:17:27;31.20;;;16.65;;
21705;SDS011;11014;53.076;18.208;2022-12-24T05:19:55;27.25;;;16.02;;
21705;SDS011;11014;53.076;18.208;2022-12-24T05:22:26;25.60;;;15.88;;
21705;SDS011;11014;53.076;18.208;2022-12-24T05:25:13;30.55;;;15.77;;
21705;SDS011;11014;53.076;18.208;2022-12-24T05:28:00;28.65;;;15.15;;
21705;SDS011;11014;53.076;18.208;2022-12-24T05:30:28;24.73;;;14.45;;
21705;SDS011;11014;53.076;18.208;2022-12-24T05:32:57;25.40;;;15.07;;
21705;SDS011;11014;53.076;18.208;2022-12-24T05:35:25;28.17;;;15.15;;
21705;SDS011;11014;53.076;18.208;2022-12-24T05:37:56;27.55;;;15.38;;
21705;SDS011;11014;53.076;18.208;2022-12-24T05:40:25;28.27;;;15.60;;
21705;SDS011;11014;53.076;18.208;2022-12-24T05:42:54;27.40;;;15.05;;
21705;SDS011;11014;53.076;18.208;2022-12-24T05:45:22;24.73;;;14.52;;
21705;SDS011;11014;53.076;18.208;2022-12-24T05:47:51;24.65;;;13.88;;
21705;SDS011;11014;53.076;18.208;2022-12-24T05:50:19;24.48;;;14.57;;
21705;SDS011;11014;53.076;18.208;2022-12-24T05:52:48;28.05;;;15.27;;
21705;SDS011;11014;53.076;18.208;2022-12-24T05:55:16;24.02;;;14.95;;
21705;SDS011;11014;53.076;18.208;2022-12-24T05:57:45;25.15;;;14.85;;
21705;SDS011;11014;53.076;18.208;2022-12-24T06:03:00;25.52;;;15.32;;
21705;SDS011;11014;53.076;18.208;2022-12-24T06:05:29;28.67;;;15.82;;
21705;SDS011;11014;53.076;18.208;2022-12-24T06:07:58;32.60;;;19.45;;
21705;SDS011;11014;53.076;18.208;2022-12-24T06:10:26;32.00;;;18.90;;
21705;SDS011;11014;53.076;18.208;2022-12-24T06:12:55;34.70;;;21.48;;
21705;SDS011;11014;53.076;18.208;2022-12-24T06:15:23;44.88;;;23.83;;
21705;SDS011;11014;53.076;18.208;2022-12-24T06:17:52;47.47;;;27.17;;
21705;SDS011;11014;53.076;18.208;2022-12-24T06:20:20;38.72;;;25.80;;
21705;SDS011;11014;53.076;18.208;2022-12-24T06:25:42;38.65;;;21.50;;
21705;SDS011;11014;53.076;18.208;2022-12-24T06:28:11;40.63;;;21.63;;
21705;SDS011;11014;53.076;18.208;2022-12-24T06:30:40;35.25;;;19.42;;
21705;SDS011;11014;53.076;18.208;2022-12-24T06:33:48;32.85;;;18.80;;
21705;SDS011;11014;53.076;18.208;2022-12-24T06:36:20;28.08;;;16.55;;
21705;SDS011;11014;53.076;18.208;2022-12-24T06:38:51;30.58;;;17.27;;
21705;SDS011;11014;53.076;18.208;2022-12-24T06:41:21;31.15;;;17.30;;
21705;SDS011;11014;53.076;18.208;2022-12-24T06:43:51;32.03;;;17.23;;
21705;SDS011;11014;53.076;18.208;2022-12-24T06:46:21;32.15;;;16.80;;
21705;SDS011;11014;53.076;18.208;2022-12-24T06:48:50;34.17;;;21.17;;
21705;SDS011;11014;53.076;18.208;2022-12-24T06:51:18;40.58;;;25.77;;
21705;SDS011;11014;53.076;18.208;2022-12-24T06:53:48;35.70;;;18.40;;
21705;SDS011;11014;53.076;18.208;2022-12-24T06:58:48;26.92;;;15.27;;
21705;SDS011;11014;53.076;18.208;2022-12-24T07:01:18;26.55;;;15.00;;
21705;SDS011;11014;53.076;18.208;2022-12-24T07:03:48;31.30;;;16.58;;
21705;SDS011;11014;53.076;18.208;2022-12-24T07:09:02;26.55;;;15.75;;
21705;SDS011;11014;53.076;18.208;2022-12-24T07:11:33;31.23;;;17.70;;
21705;SDS011;11014;53.076;18.208;2022-12-24T07:14:01;29.90;;;17.20;;
21705;SDS011;11014;53.076;18.208;2022-12-24T07:16:30;30.77;;;17.15;;
21705;SDS011;11014;53.076;18.208;2022-12-24T07:19:13;25.67;;;14.88;;
21705;SDS011;11014;53.076;18.208;2022-12-24T07:24:43;30.50;;;16.98;;
21705;SDS011;11014;53.076;18.208;2022-12-24T07:30:36;28.10;;;16.27;;
21705;SDS011;11014;53.076;18.208;2022-12-24T07:33:05;30.67;;;16.40;;
21705;SDS011;11014;53.076;18.208;2022-12-24T07:35:36;27.88;;;15.43;;
21705;SDS011;11014;53.076;18.208;2022-12-24T07:38:04;24.33;;;14.48;;
21705;SDS011;11014;53.076;18.208;2022-12-24T07:40:33;22.52;;;13.27;;
21705;SDS011;11014;53.076;18.208;2022-12-24T07:43:08;23.08;;;13.07;;
21705;SDS011;11014;53.076;18.208;2022-12-24T07:45:38;21.35;;;13.35;;
21705;SDS011;11014;53.076;18.208;2022-12-24T07:48:06;26.52;;;14.88;;
21705;SDS011;11014;53.076;18.208;2022-12-24T07:50:35;27.90;;;15.27;;
21705;SDS011;11014;53.076;18.208;2022-12-24T07:53:03;23.00;;;15.00;;
21705;SDS011;11014;53.076;18.208;2022-12-24T07:55:35;22.65;;;13.23;;
21705;SDS011;11014;53.076;18.208;2022-12-24T07:58:05;20.02;;;11.68;;
21705;SDS011;11014;53.076;18.208;2022-12-24T08:00:35;20.35;;;12.20;;
21705;SDS011;11014;53.076;18.208;2022-12-24T08:06:25;23.35;;;12.13;;
21705;SDS011;11014;53.076;18.208;2022-12-24T08:08:56;17.38;;;10.88;;
21705;SDS011;11014;53.076;18.208;2022-12-24T08:11:25;23.10;;;11.57;;
21705;SDS011;11014;53.076;18.208;2022-12-24T08:14:13;20.42;;;10.93;;
21705;SDS011;11014;53.076;18.208;2022-12-24T08:16:41;23.35;;;12.18;;
21705;SDS011;11014;53.076;18.208;2022-12-24T08:19:13;14.98;;;9.90;;
21705;SDS011;11014;53.076;18.208;2022-12-24T08:21:41;16.92;;;9.85;;
21705;SDS011;11014;53.076;18.208;2022-12-24T08:24:13;15.20;;;9.23;;
21705;SDS011;11014;53.076;18.208;2022-12-24T08:26:41;17.80;;;9.88;;
21705;SDS011;11014;53.076;18.208;2022-12-24T08:29:12;20.23;;;10.77;;
21705;SDS011;11014;53.076;18.208;2022-12-24T08:31:44;20.75;;;11.40;;
21705;SDS011;11014;53.076;18.208;2022-12-24T08:34:15;19.08;;;11.50;;
21705;SDS011;11014;53.076;18.208;2022-12-24T08:36:44;21.88;;;12.48;;
21705;SDS011;11014;53.076;18.208;2022-12-24T08:39:13;20.70;;;12.05;;
21705;SDS011;11014;53.076;18.208;2022-12-24T08:41:42;22.48;;;12.50;;
21705;SDS011;11014;53.076;18.208;2022-12-24T08:44:12;19.98;;;12.57;;
21705;SDS011;11014;53.076;18.208;2022-12-24T08:46:41;22.20;;;13.32;;
21705;SDS011;11014;53.076;18.208;2022-12-24T08:49:09;19.95;;;12.05;;
21705;SDS011;11014;53.076;18.208;2022-12-24T08:51:39;22.40;;;11.40;;
21705;SDS011;11014;53.076;18.208;2022-12-24T08:54:10;19.73;;;10.60;;
21705;SDS011;11014;53.076;18.208;2022-12-24T08:56:54;16.63;;;10.23;;
21705;SDS011;11014;53.076;18.208;2022-12-24T08:59:22;17.23;;;10.75;;
21705;SDS011;11014;53.076;18.208;2022-12-24T09:02:01;18.27;;;11.20;;
21705;SDS011;11014;53.076;18.208;2022-12-24T09:04:33;21.37;;;11.87;;
21705;SDS011;11014;53.076;18.208;2022-12-24T09:07:11;17.98;;;11.05;;
21705;SDS011;11014;53.076;18.208;2022-12-24T09:09:40;20.02;;;11.80;;
21705;SDS011;11014;53.076;18.208;2022-12-24T09:12:08;19.92;;;11.75;;
21705;SDS011;11014;53.076;18.208;2022-12-24T09:14:42;23.00;;;11.88;;
21705;SDS011;11014;53.076;18.208;2022-12-24T09:17:11;19.83;;;12.02;;
21705;SDS011;11014;53.076;18.208;2022-12-24T09:19:40;21.58;;;13.85;;
21705;SDS011;11014;53.076;18.208;2022-12-24T09:22:12;26.73;;;15.10;;
21705;SDS011;11014;53.076;18.208;2022-12-24T09:24:41;32.55;;;20.20;;
21705;SDS011;11014;53.076;18.208;2022-12-24T09:27:10;25.20;;;14.32;;
21705;SDS011;11014;53.076;18.208;2022-12-24T09:29:39;22.95;;;14.68;;
21705;SDS011;11014;53.076;18.208;2022-12-24T09:32:08;23.45;;;12.88;;
21705;SDS011;11014;53.076;18.208;2022-12-24T09:34:38;23.98;;;14.82;;
21705;SDS011;11014;53.076;18.208;2022-12-24T09:40:05;19.80;;;12.02;;
21705;SDS011;11014;53.076;18.208;2022-12-24T09:43:19;23.23;;;12.10;;
21705;SDS011;11014;53.076;18.208;2022-12-24T09:46:00;18.38;;;11.27;;
21705;SDS011;11014;53.076;18.208;2022-12-24T09:49:01;19.38;;;11.18;;
21705;SDS011;11014;53.076;18.208;2022-12-24T09:51:38;25.48;;;15.18;;
21705;SDS011;11014;53.076;18.208;2022-12-24T09:54:31;22.75;;;14.10;;
21705;SDS011;11014;53.076;18.208;2022-12-24T09:57:19;22.45;;;13.45;;
21705;SDS011;11014;53.076;18.208;2022-12-24T10:00:25;26.95;;;14.95;;
21705;SDS011;11014;53.076;18.208;2022-12-24T10:02:59;26.70;;;14.15;;
21705;SDS011;11014;53.076;18.208;2022-12-24T10:05:40;26.50;;;15.13;;
21705;SDS011;11014;53.076;18.208;2022-12-24T10:12:37;24.92;;;13.02;;
21705;SDS011;11014;53.076;18.208;2022-12-24T10:19:21;21.95;;;11.90;;
21705;SDS011;11014;53.076;18.208;2022-12-24T10:22:17;21.30;;;12.82;;
21705;SDS011;11014;53.076;18.208;2022-12-24T10:25:22;25.90;;;13.65;;
21705;SDS011;11014;53.076;18.208;2022-12-24T10:28:17;26.90;;;15.07;;
21705;SDS011;11014;53.076;18.208;2022-12-24T10:30:49;27.92;;;16.33;;
21705;SDS011;11014;53.076;18.208;2022-12-24T10:33:42;34.05;;;18.25;;
21705;SDS011;11014;53.076;18.208;2022-12-24T10:36:21;27.88;;;16.55;;
21705;SDS011;11014;53.076;18.208;2022-12-24T10:38:57;24.25;;;15.30;;
21705;SDS011;11014;53.076;18.208;2022-12-24T10:41:26;25.85;;;15.07;;
21705;SDS011;11014;53.076;18.208;2022-12-24T10:43:57;23.15;;;14.52;;
21705;SDS011;11014;53.076;18.208;2022-12-24T10:46:30;29.10;;;17.48;;
21705;SDS011;11014;53.076;18.208;2022-12-24T10:49:05;34.08;;;18.83;;
21705;SDS011;11014;53.076;18.208;2022-12-24T10:51:46;39.90;;;22.43;;
21705;SDS011;11014;53.076;18.208;2022-12-24T10:54:22;31.38;;;18.63;;
21705;SDS011;11014;53.076;18.208;2022-12-24T10:56:58;36.88;;;17.42;;
21705;SDS011;11014;53.076;18.208;2022-12-24T11:02:28;29.13;;;18.70;;
21705;SDS011;11014;53.076;18.208;2022-12-24T11:11:19;42.90;;;25.80;;
21705;SDS011;11014;53.076;18.208;2022-12-24T11:14:13;35.60;;;21.85;;
21705;SDS011;11014;53.076;18.208;2022-12-24T11:16:52;27.35;;;15.77;;
21705;SDS011;11014;53.076;18.208;2022-12-24T11:19:30;33.65;;;18.80;;
21705;SDS011;11014;53.076;18.208;2022-12-24T11:28:44;44.45;;;20.00;;
21705;SDS011;11014;53.076;18.208;2022-12-24T11:32:19;36.55;;;18.98;;
21705;SDS011;11014;53.076;18.208;2022-12-24T11:39:00;29.77;;;16.75;;
21705;SDS011;11014;53.076;18.208;2022-12-24T11:44:25;44.78;;;21.00;;
21705;SDS011;11014;53.076;18.208;2022-12-24T11:46:59;35.17;;;18.23;;
21705;SDS011;11014;53.076;18.208;2022-12-24T11:49:40;30.42;;;18.13;;
21705;SDS011;11014;53.076;18.208;2022-12-24T11:52:20;31.80;;;19.27;;
21705;SDS011;11014;53.076;18.208;2022-12-24T12:01:33;37.60;;;22.30;;
21705;SDS011;11014;53.076;18.208;2022-12-24T12:04:34;28.07;;;17.33;;
21705;SDS011;11014;53.076;18.208;2022-12-24T12:10:22;46.63;;;31.10;;
21705;SDS011;11014;53.076;18.208;2022-12-24T12:12:56;43.10;;;26.48;;
21705;SDS011;11014;53.076;18.208;2022-12-24T12:15:32;31.45;;;20.20;;
21705;SDS011;11014;53.076;18.208;2022-12-24T12:18:31;44.70;;;29.55;;
21705;SDS011;11014;53.076;18.208;2022-12-24T12:21:18;36.58;;;20.65;;
21705;SDS011;11014;53.076;18.208;2022-12-24T12:27:31;24.60;;;14.60;;
21705;SDS011;11014;53.076;18.208;2022-12-24T12:32:54;25.40;;;14.48;;
21705;SDS011;11014;53.076;18.208;2022-12-24T12:35:33;21.92;;;14.25;;
21705;SDS011;11014;53.076;18.208;2022-12-24T12:38:12;24.10;;;14.30;;
21705;SDS011;11014;53.076;18.208;2022-12-24T12:41:17;24.75;;;14.88;;
21705;SDS011;11014;53.076;18.208;2022-12-24T12:44:14;26.48;;;14.70;;
21705;SDS011;11014;53.076;18.208;2022-12-24T12:49:49;27.05;;;16.27;;
21705;SDS011;11014;53.076;18.208;2022-12-24T12:55:23;46.58;;;24.35;;
21705;SDS011;11014;53.076;18.208;2022-12-24T12:58:24;50.65;;;31.95;;
21705;SDS011;11014;53.076;18.208;2022-12-24T13:01:00;53.75;;;30.25;;
21705;SDS011;11014;53.076;18.208;2022-12-24T13:03:57;62.42;;;33.88;;
21705;SDS011;11014;53.076;18.208;2022-12-24T13:09:50;93.63;;;58.20;;
21705;SDS011;11014;53.076;18.208;2022-12-24T13:12:47;136.70;;;75.28;;
21705;SDS011;11014;53.076;18.208;2022-12-24T13:20:52;74.50;;;44.40;;
21705;SDS011;11014;53.076;18.208;2022-12-24T13:23:23;38.03;;;21.48;;
21705;SDS011;11014;53.076;18.208;2022-12-24T13:25:59;35.42;;;20.27;;
21705;SDS011;11014;53.076;18.208;2022-12-24T13:28:39;33.65;;;20.95;;
21705;SDS011;11014;53.076;18.208;2022-12-24T13:33:53;33.58;;;21.00;;
21705;SDS011;11014;53.076;18.208;2022-12-24T13:36:23;33.05;;;20.25;;
21705;SDS011;11014;53.076;18.208;2022-12-24T13:38:54;34.58;;;20.40;;
21705;SDS011;11014;53.076;18.208;2022-12-24T13:41:36;32.13;;;18.42;;
21705;SDS011;11014;53.076;18.208;2022-12-24T13:44:19;32.72;;;18.10;;
21705;SDS011;11014;53.076;18.208;2022-12-24T13:49:38;38.85;;;22.98;;
21705;SDS011;11014;53.076;18.208;2022-12-24T13:54:39;38.72;;;23.75;;
21705;SDS011;11014;53.076;18.208;2022-12-24T13:58:43;31.58;;;19.15;;
21705;SDS011;11014;53.076;18.208;2022-12-24T14:01:18;34.47;;;20.30;;
21705;SDS011;11014;53.076;18.208;2022-12-24T14:03:57;33.83;;;21.23;;
21705;SDS011;11014;53.076;18.208;2022-12-24T14:09:32;38.45;;;22.30;;
21705;SDS011;11014;53.076;18.208;2022-12-24T14:14:30;38.80;;;23.20;;
21705;SDS011;11014;53.076;18.208;2022-12-24T14:17:23;57.95;;;28.58;;
21705;SDS011;11014;53.076;18.208;2022-12-24T14:20:07;61.53;;;30.75;;
21705;SDS011;11014;53.076;18.208;2022-12-24T14:22:44;39.25;;;23.27;;
21705;SDS011;11014;53.076;18.208;2022-12-24T14:25:18;37.08;;;20.75;;
21705;SDS011;11014;53.076;18.208;2022-12-24T14:27:58;49.10;;;28.20;;
21705;SDS011;11014;53.076;18.208;2022-12-24T14:30:34;75.70;;;40.72;;
21705;SDS011;11014;53.076;18.208;2022-12-24T14:33:03;90.00;;;47.63;;
21705;SDS011;11014;53.076;18.208;2022-12-24T14:35:36;102.93;;;65.35;;
21705;SDS011;11014;53.076;18.208;2022-12-24T14:38:19;110.45;;;61.58;;
21705;SDS011;11014;53.076;18.208;2022-12-24T14:40:54;106.85;;;63.28;;
21705;SDS011;11014;53.076;18.208;2022-12-24T14:53:19;49.72;;;32.70;;
21705;SDS011;11014;53.076;18.208;2022-12-24T14:56:16;59.90;;;38.85;;
21705;SDS011;11014;53.076;18.208;2022-12-24T14:58:49;65.18;;;41.95;;
21705;SDS011;11014;53.076;18.208;2022-12-24T15:01:25;65.57;;;46.53;;
21705;SDS011;11014;53.076;18.208;2022-12-24T15:06:38;59.00;;;34.08;;
21705;SDS011;11014;53.076;18.208;2022-12-24T15:09:31;59.25;;;36.17;;
21705;SDS011;11014;53.076;18.208;2022-12-24T15:12:10;56.55;;;37.38;;
21705;SDS011;11014;53.076;18.208;2022-12-24T15:14:42;49.42;;;30.73;;
21705;SDS011;11014;53.076;18.208;2022-12-24T15:17:38;50.92;;;31.85;;
21705;SDS011;11014;53.076;18.208;2022-12-24T15:20:31;46.05;;;29.27;;
21705;SDS011;11014;53.076;18.208;2022-12-24T15:23:15;48.40;;;31.05;;
21705;SDS011;11014;53.076;18.208;2022-12-24T15:25:48;60.65;;;37.08;;
21705;SDS011;11014;53.076;18.208;2022-12-24T15:28:22;63.20;;;33.42;;
21705;SDS011;11014;53.076;18.208;2022-12-24T15:31:03;42.60;;;24.88;;
21705;SDS011;11014;53.076;18.208;2022-12-24T15:33:36;44.92;;;27.15;;
21705;SDS011;11014;53.076;18.208;2022-12-24T15:36:05;50.92;;;29.52;;
21705;SDS011;11014;53.076;18.208;2022-12-24T15:38:42;87.70;;;51.17;;
21705;SDS011;11014;53.076;18.208;2022-12-24T15:43:47;75.00;;;39.60;;
21705;SDS011;11014;53.076;18.208;2022-12-24T15:46:20;58.33;;;31.25;;
21705;SDS011;11014;53.076;18.208;2022-12-24T15:48:52;66.85;;;38.13;;
21705;SDS011;11014;53.076;18.208;2022-12-24T15:51:27;67.95;;;37.38;;
21705;SDS011;11014;53.076;18.208;2022-12-24T15:54:11;85.50;;;44.50;;
21705;SDS011;11014;53.076;18.208;2022-12-24T15:56:46;90.60;;;45.92;;
21705;SDS011;11014;53.076;18.208;2022-12-24T16:01:46;109.13;;;60.13;;
21705;SDS011;11014;53.076;18.208;2022-12-24T16:04:20;106.10;;;57.78;;
21705;SDS011;11014;53.076;18.208;2022-12-24T16:09:41;105.47;;;50.83;;
21705;SDS011;11014;53.076;18.208;2022-12-24T16:12:16;106.90;;;56.15;;
21705;SDS011;11014;53.076;18.208;2022-12-24T16:14:55;86.00;;;46.55;;
21705;SDS011;11014;53.076;18.208;2022-12-24T16:17:27;80.72;;;42.50;;
21705;SDS011;11014;53.076;18.208;2022-12-24T16:20:02;80.45;;;42.17;;
21705;SDS011;11014;53.076;18.208;2022-12-24T16:22:47;70.63;;;38.70;;
21705;SDS011;11014;53.076;18.208;2022-12-24T16:25:41;67.03;;;36.25;;
21705;SDS011;11014;53.076;18.208;2022-12-24T16:28:15;71.03;;;36.20;;
21705;SDS011;11014;53.076;18.208;2022-12-24T16:30:50;63.08;;;35.47;;
21705;SDS011;11014;53.076;18.208;2022-12-24T16:33:21;62.05;;;35.13;;
21705;SDS011;11014;53.076;18.208;2022-12-24T16:35:52;61.97;;;33.90;;
21705;SDS011;11014;53.076;18.208;2022-12-24T16:38:23;63.92;;;34.10;;
21705;SDS011;11014;53.076;18.208;2022-12-24T16:40:51;67.13;;;37.53;;
21705;SDS011;11014;53.076;18.208;2022-12-24T16:43:21;61.00;;;35.03;;
21705;SDS011;11014;53.076;18.208;2022-12-24T16:46:09;68.03;;;38.63;;
21705;SDS011;11014;53.076;18.208;2022-12-24T16:48:47;75.43;;;38.83;;
21705;SDS011;11014;53.076;18.208;2022-12-24T16:51:31;84.20;;;44.25;;
21705;SDS011;11014;53.076;18.208;2022-12-24T16:54:01;77.40;;;40.63;;
21705;SDS011;11014;53.076;18.208;2022-12-24T16:56:30;72.95;;;40.30;;
21705;SDS011;11014;53.076;18.208;2022-12-24T16:59:01;65.57;;;37.28;;
21705;SDS011;11014;53.076;18.208;2022-12-24T17:01:32;69.30;;;38.10;;
21705;SDS011;11014;53.076;18.208;2022-12-24T17:04:00;67.85;;;38.55;;
21705;SDS011;11014;53.076;18.208;2022-12-24T17:06:34;72.30;;;38.92;;
21705;SDS011;11014;53.076;18.208;2022-12-24T17:09:03;72.30;;;40.13;;
21705;SDS011;11014;53.076;18.208;2022-12-24T17:11:35;73.85;;;40.63;;
21705;SDS011;11014;53.076;18.208;2022-12-24T17:14:04;73.00;;;41.67;;
21705;SDS011;11014;53.076;18.208;2022-12-24T17:16:37;73.28;;;41.03;;
21705;SDS011;11014;53.076;18.208;2022-12-24T17:19:08;78.80;;;42.53;;